Time;durP1;ratioP1;P1;durP2;ratioP2;P2;SDS_P1;SDS_P2;PMS_P1;PMS_P2;Temp;Humidity;BMP_temperature;BMP_pressure;BME280_temperature;BME280_humidity;BME280_pressure;Samples;Min_cycle;Max_cycle;Signal;HPM_P1;HPM_P2
2021/10/30 00:01:07;;;;;;;;;26.25;21.50;;;;;;;;6443395;22;8752;-81
2021/10/30 00:03:43;;;;;;;;;22.00;20.00;;;;;;;;6440400;22;8745;-81
2021/10/30 00:06:46;;;;;;;;;21.25;19.00;;;;;;;;6409599;22;11868;-80
2021/10/30 00:09:32;;;;;;;;;25.50;18.50;;;;;;;;6408244;22;8781;-82
2021/10/30 00:12:26;;;;;;;;;19.75;16.00;;;;;;;;6442395;22;9122;-81
2021/10/30 00:15:12;;;;;;;;;18.75;18.25;;;;;;;;6278123;22;8765;-81
2021/10/30 00:18:16;;;;;;;;;;;;;;;;;;;;;
2021/10/30 00:20:49;;;;;;;;;23.25;19.00;;;;;;;;6279284;22;35592;-81
2021/10/30 00:23:26;;;;;;;;;18.00;17.00;;;;;;;;6280854;22;8719;-81
2021/10/30 00:25:51;;;;;;;;;21.25;17.50;;;;;;;;6252144;22;8765;-81
2021/10/30 00:28:34;;;;;;;;;17.00;16.25;;;;;;;;6280183;22;8750;-81
2021/10/30 00:31:02;;;;;;;;;20.50;16.75;;;;;;;;6281522;22;8750;-81
2021/10/30 00:33:41;;;;;;;;;16.00;15.00;;;;;;;;6276347;22;9598;-81
2021/10/30 00:36:06;;;;;;;;;15.50;13.50;;;;;;;;6251679;22;8778;-81
2021/10/30 00:38:32;;;;;;;;;21.00;17.50;;;;;;;;6279341;22;8808;-80
2021/10/30 00:44:33;;;;;;;;;18.00;15.50;;;;;;;;6278654;22;8738;-81
2021/10/30 00:47:08;;;;;;;;;16.00;15.50;;;;;;;;6267322;22;8675;-81
2021/10/30 00:49:34;;;;;;;;;17.25;13.75;;;;;;;;6277451;22;8722;-80
2021/10/30 00:53:10;;;;;;;;;13.25;13.25;;;;;;;;6409205;22;8717;-81
2021/10/30 00:55:27;;;;;;;;;19.50;17.50;;;;;;;;6415352;22;8730;-81
2021/10/30 00:57:58;;;;;;;;;18.25;14.25;;;;;;;;6412796;22;8748;-81
2021/10/30 01:00:26;;;;;;;;;14.00;13.00;;;;;;;;6411074;22;8686;-81
2021/10/30 01:02:52;;;;;;;;;14.25;13.75;;;;;;;;6441940;22;8848;-80
2021/10/30 01:05:23;;;;;;;;;15.00;14.50;;;;;;;;6440967;22;8767;-80
2021/10/30 01:08:18;;;;;;;;;;;;;;;;;;;;;
2021/10/30 01:10:45;;;;;;;;;13.00;11.25;;;;;;;;6430475;22;35868;-80
2021/10/30 01:13:30;;;;;;;;;12.50;12.00;;;;;;;;6442250;22;8710;-81
2021/10/30 01:15:56;;;;;;;;;12.50;11.50;;;;;;;;6440689;22;8721;-80
2021/10/30 01:18:31;;;;;;;;;14.00;12.50;;;;;;;;6439864;22;8733;-81
2021/10/30 01:20:56;;;;;;;;;13.25;10.75;;;;;;;;6439481;22;8823;-81
2021/10/30 01:23:42;;;;;;;;;14.50;12.50;;;;;;;;6440083;22;8744;-80
2021/10/30 01:26:07;;;;;;;;;10.00;9.00;;;;;;;;6437878;22;8729;-80
2021/10/30 01:28:38;;;;;;;;;12.33;11.00;;;;;;;;6410942;22;8729;-81
2021/10/30 01:41:55;;;;;;;;;14.00;13.75;;;;;;;;6366672;22;8767;-82
2021/10/30 01:44:38;;;;;;;;;14.50;13.75;;;;;;;;6374131;22;8648;-82
2021/10/30 01:49:56;;;;;;;;;13.75;13.00;;;;;;;;6387186;22;8810;-82
2021/10/30 02:11:10;;;;;;;;;12.75;12.75;;;;;;;;6338912;22;8797;-81
2021/10/30 02:13:51;;;;;;;;;;;;;;;;;;;;;
2021/10/30 02:19:45;;;;;;;;;14.25;12.00;;;;;;;;6392260;22;8865;-81
2021/10/30 02:35:27;;;;;;;;;16.25;12.25;;;;;;;;6382466;22;9550;-92
2021/10/30 02:43:27;;;;;;;;;14.75;13.25;;;;;;;;6351841;22;8789;-81
2021/10/30 02:48:43;;;;;;;;;;;;;;;;;;;;;
2021/10/30 02:51:41;;;;;;;;;15.00;12.50;;;;;;;;6405802;22;36252;-81
2021/10/30 02:54:32;;;;;;;;;17.50;12.00;;;;;;;;6386367;22;9486;-81
2021/10/30 02:59:29;;;;;;;;;12.00;11.25;;;;;;;;6320834;22;8797;-93
2021/10/30 03:04:27;;;;;;;;;12.25;10.50;;;;;;;;6408608;22;8769;-91
2021/10/30 03:09:56;;;;;;;;;9.25;8.75;;;;;;;;6390685;22;9775;-91
2021/10/30 03:12:22;;;;;;;;;17.00;10.33;;;;;;;;6409458;22;8845;-92
2021/10/30 03:19:57;;;;;;;;;16.75;12.50;;;;;;;;6439563;22;8757;-81
2021/10/30 03:22:22;;;;;;;;;13.75;12.00;;;;;;;;6408206;22;8722;-81
2021/10/30 03:24:55;;;;;;;;;14.25;11.00;;;;;;;;6438102;22;9498;-80
2021/10/30 03:27:27;;;;;;;;;11.75;11.75;;;;;;;;6408269;22;8737;-81
2021/10/30 03:32:47;;;;;;;;;14.75;12.50;;;;;;;;6406027;22;9514;-81
2021/10/30 03:35:32;;;;;;;;;12.50;12.00;;;;;;;;6405581;22;8734;-82
2021/10/30 03:37:58;;;;;;;;;12.75;10.50;;;;;;;;6404698;22;8730;-81
2021/10/30 03:40:44;;;;;;;;;17.75;11.50;;;;;;;;6405022;22;8808;-81
2021/10/30 03:43:09;;;;;;;;;18.25;11.25;;;;;;;;6406920;22;8723;-82
2021/10/30 03:45:34;;;;;;;;;13.75;12.00;;;;;;;;6405612;22;8875;-81
2021/10/30 03:48:19;;;;;;;;;;;;;;;;;;;;;
2021/10/30 03:50:45;;;;;;;;;10.50;10.00;;;;;;;;6405373;22;35136;-81
2021/10/30 03:56:01;;;;;;;;;11.25;10.00;;;;;;;;6391684;22;8733;-81
2021/10/30 03:58:28;;;;;;;;;10.50;10.25;;;;;;;;6406620;22;8749;-80
2021/10/30 04:00:53;;;;;;;;;14.75;11.00;;;;;;;;6356328;22;8698;-89
2021/10/30 04:05:56;;;;;;;;;11.50;10.25;;;;;;;;6377806;22;8764;-80
2021/10/30 04:08:39;;;;;;;;;10.75;10.50;;;;;;;;6373794;22;8862;-79
2021/10/30 04:11:12;;;;;;;;;10.75;9.25;;;;;;;;6371964;22;8729;-79
2021/10/30 04:13:40;;;;;;;;;10.50;10.50;;;;;;;;6371294;22;8725;-79
2021/10/30 04:16:28;;;;;;;;;9.50;9.25;;;;;;;;6374207;22;8740;-79
2021/10/30 04:19:02;;;;;;;;;9.75;9.00;;;;;;;;6375155;22;8766;-80
2021/10/30 04:21:34;;;;;;;;;9.00;8.50;;;;;;;;6372775;22;8752;-80
2021/10/30 04:24:27;;;;;;;;;11.00;9.50;;;;;;;;6343027;22;8745;-79
2021/10/30 04:27:02;;;;;;;;;9.75;9.75;;;;;;;;6352663;22;8732;-79
2021/10/30 04:29:27;;;;;;;;;13.00;10.50;;;;;;;;6374322;22;8739;-79
2021/10/30 04:32:17;;;;;;;;;6.75;6.75;;;;;;;;6373088;22;10124;-79
2021/10/30 04:35:07;;;;;;;;;10.50;7.25;;;;;;;;6370164;22;8728;-79
2021/10/30 04:37:34;;;;;;;;;8.75;8.00;;;;;;;;6375317;22;8757;-80
2021/10/30 04:40:00;;;;;;;;;11.75;10.25;;;;;;;;6347301;22;8766;-80
2021/10/30 04:42:25;;;;;;;;;9.50;9.50;;;;;;;;6374294;22;8760;-80
2021/10/30 04:44:51;;;;;;;;;12.67;8.33;;;;;;;;6379048;22;8764;-79
2021/10/30 04:47:16;;;;;;;;;10.00;10.00;;;;;;;;6375462;22;9370;-79
2021/10/30 04:49:43;;;;;;;;;11.25;9.00;;;;;;;;6373117;22;9453;-79
2021/10/30 04:52:10;;;;;;;;;12.00;11.00;;;;;;;;6376698;22;8758;-79
2021/10/30 04:54:36;;;;;;;;;10.50;9.00;;;;;;;;6345247;22;8759;-79
2021/10/30 04:57:04;;;;;;;;;9.75;8.25;;;;;;;;6344242;22;8764;-79
2021/10/30 04:59:37;;;;;;;;;10.25;7.25;;;;;;;;6373793;22;8793;-79
2021/10/30 05:05:08;;;;;;;;;9.00;6.75;;;;;;;;6374547;22;8866;-79
2021/10/30 05:07:58;;;;;;;;;8.00;5.75;;;;;;;;6388801;22;8856;-80
2021/10/30 05:18:11;;;;;;;;;10.00;8.25;;;;;;;;6337470;22;9529;-93
2021/10/30 05:20:36;;;;;;;;;6.50;6.25;;;;;;;;6411589;22;8773;-92
2021/10/30 05:25:56;;;;;;;;;9.25;8.00;;;;;;;;6392776;22;8820;-82
2021/10/30 05:28:30;;;;;;;;;10.00;6.50;;;;;;;;6374066;22;8863;-82
2021/10/30 05:54:31;;;;;;;;;5.50;5.00;;;;;;;;6378880;22;9098;-81
2021/10/30 05:57:22;;;;;;;;;7.00;7.00;;;;;;;;6226275;22;8750;-81
2021/10/30 06:02:24;;;;;;;;;9.00;5.75;;;;;;;;6314797;22;9921;-81
2021/10/30 06:04:53;;;;;;;;;4.50;4.50;;;;;;;;6403538;22;8754;-81
2021/10/30 06:09:58;;;;;;;;;6.00;6.00;;;;;;;;6347409;22;8780;-82
2021/10/30 06:12:33;;;;;;;;;7.25;6.00;;;;;;;;6438147;22;8706;-81
2021/10/30 06:27:55;;;;;;;;;5.00;5.00;;;;;;;;6324915;22;45536;-80
2021/10/30 06:33:22;;;;;;;;;5.00;4.50;;;;;;;;6293070;22;46042;-81
2021/10/30 06:35:47;;;;;;;;;5.50;4.50;;;;;;;;6317444;22;48092;-93
2021/10/30 06:38:12;;;;;;;;;6.00;6.00;;;;;;;;6138046;22;4350750;-81
2021/10/30 06:51:04;;;;;;;;;9.50;5.00;;;;;;;;6335269;22;45859;-81
2021/10/30 06:53:29;;;;;;;;;4.75;4.75;;;;;;;;6334662;22;45773;-81
2021/10/30 06:55:56;;;;;;;;;5.50;4.00;;;;;;;;6360613;22;45869;-81
2021/10/30 06:58:21;;;;;;;;;5.00;4.00;;;;;;;;6362214;22;45391;-80
2021/10/30 07:06:02;;;;;;;;;5.00;5.00;;;;;;;;6337232;22;45427;-82
2021/10/30 07:08:27;;;;;;;;;4.50;4.50;;;;;;;;6360704;22;45702;-81
2021/10/30 07:10:57;;;;;;;;;6.67;4.00;;;;;;;;6359864;22;45563;-80
2021/10/30 07:13:25;;;;;;;;;4.00;4.00;;;;;;;;6360981;22;45339;-80
2021/10/30 07:15:56;;;;;;;;;4.00;4.00;;;;;;;;6361078;22;47029;-81
2021/10/30 07:18:28;;;;;;;;;7.25;3.00;;;;;;;;6359623;22;45350;-80
2021/10/30 07:20:53;;;;;;;;;4.75;4.75;;;;;;;;6360185;22;45513;-81
2021/10/30 07:23:19;;;;;;;;;4.25;4.25;;;;;;;;6361221;22;45448;-81
2021/10/30 07:25:44;;;;;;;;;10.00;6.00;;;;;;;;6360422;22;45893;-81
2021/10/30 07:28:12;;;;;;;;;6.25;5.50;;;;;;;;6361136;22;45469;-80
2021/10/30 07:38:45;;;;;;;;;8.25;6.00;;;;;;;;6289935;22;45511;-81
2021/10/30 07:41:10;;;;;;;;;7.00;5.00;;;;;;;;6393075;22;45443;-81
2021/10/30 07:43:38;;;;;;;;;10.25;6.00;;;;;;;;6391408;22;45455;-80
2021/10/30 07:46:08;;;;;;;;;5.75;5.00;;;;;;;;6393520;22;45591;-81
2021/10/30 07:48:41;;;;;;;;;6.00;6.00;;;;;;;;6392780;22;45837;-80
2021/10/30 07:51:06;;;;;;;;;5.25;5.00;;;;;;;;6390878;22;45353;-80
2021/10/30 07:53:31;;;;;;;;;5.00;5.00;;;;;;;;6391541;22;45597;-81
2021/10/30 07:56:00;;;;;;;;;5.00;5.00;;;;;;;;6392606;22;46070;-80
2021/10/30 07:58:27;;;;;;;;;5.50;4.25;;;;;;;;6392727;22;45333;-81
2021/10/30 08:00:54;;;;;;;;;6.00;4.00;;;;;;;;6391764;22;45535;-80
2021/10/30 08:03:22;;;;;;;;;4.25;4.25;;;;;;;;6392435;22;45472;-81
2021/10/30 08:05:52;;;;;;;;;5.75;4.75;;;;;;;;6393584;22;46401;-81
2021/10/30 08:08:19;;;;;;;;;9.50;6.00;;;;;;;;6390851;22;45831;-81
2021/10/30 08:10:47;;;;;;;;;5.00;5.00;;;;;;;;6390886;22;45424;-81
2021/10/30 08:13:13;;;;;;;;;9.75;5.50;;;;;;;;6393840;22;45828;-81
2021/10/30 08:15:39;;;;;;;;;6.25;5.00;;;;;;;;6391502;22;45798;-81
2021/10/30 08:18:04;;;;;;;;;6.00;4.50;;;;;;;;6362333;22;45527;-81
2021/10/30 08:20:30;;;;;;;;;5.50;3.75;;;;;;;;6393432;22;45357;-81
2021/10/30 08:22:56;;;;;;;;;5.00;5.00;;;;;;;;6390181;22;45669;-81
2021/10/30 08:25:28;;;;;;;;;5.50;5.50;;;;;;;;6392492;22;45820;-81
2021/10/30 08:27:54;;;;;;;;;5.00;5.00;;;;;;;;6394204;22;45525;-81
2021/10/30 08:30:22;;;;;;;;;4.50;3.25;;;;;;;;6363769;22;45494;-81
2021/10/30 08:32:48;;;;;;;;;3.75;3.75;;;;;;;;6393324;22;45395;-81
2021/10/30 08:35:14;;;;;;;;;6.00;5.00;;;;;;;;6391553;22;45746;-81
2021/10/30 08:37:42;;;;;;;;;5.50;4.25;;;;;;;;6389425;22;45392;-81
2021/10/30 08:40:10;;;;;;;;;5.25;5.25;;;;;;;;6395496;22;45398;-81
2021/10/30 08:42:39;;;;;;;;;6.00;5.00;;;;;;;;6399014;22;45315;-81
2021/10/30 08:45:09;;;;;;;;;6.00;4.00;;;;;;;;6391720;22;46833;-80
2021/10/30 08:47:42;;;;;;;;;2.50;2.50;;;;;;;;6391687;22;45380;-81
2021/10/30 08:50:08;;;;;;;;;6.00;5.00;;;;;;;;6365633;22;45341;-82
2021/10/30 08:52:34;;;;;;;;;4.50;3.25;;;;;;;;6391888;22;45766;-81
2021/10/30 08:55:04;;;;;;;;;4.00;3.75;;;;;;;;6392743;22;45585;-81
2021/10/30 08:57:29;;;;;;;;;5.25;4.75;;;;;;;;6390472;22;45522;-81
2021/10/30 08:59:54;;;;;;;;;5.75;5.50;;;;;;;;6394389;22;45385;-80
2021/10/30 09:02:27;;;;;;;;;7.50;5.00;;;;;;;;6391022;22;45419;-80
2021/10/30 09:05:08;;;;;;;;;4.00;4.00;;;;;;;;6362027;22;46943;-81
2021/10/30 09:07:52;;;;;;;;;7.00;5.50;;;;;;;;6389477;22;45410;-81
2021/10/30 09:10:22;;;;;;;;;9.25;5.75;;;;;;;;6392097;22;45667;-81
2021/10/30 09:12:51;;;;;;;;;4.00;4.00;;;;;;;;6392173;22;45498;-81
2021/10/30 09:15:19;;;;;;;;;6.75;6.25;;;;;;;;6362156;22;48296;-80
2021/10/30 09:17:45;;;;;;;;;6.00;6.00;;;;;;;;6392179;22;45375;-81
2021/10/30 09:20:12;;;;;;;;;6.00;5.50;;;;;;;;6363465;22;45336;-81
2021/10/30 09:22:39;;;;;;;;;5.50;5.50;;;;;;;;6390837;22;45457;-80
2021/10/30 09:25:08;;;;;;;;;8.00;5.50;;;;;;;;6393933;22;45558;-81
2021/10/30 09:27:52;;;;;;;;;6.00;5.00;;;;;;;;6390863;22;45535;-81
2021/10/30 09:30:20;;;;;;;;;6.00;6.00;;;;;;;;6391668;22;45460;-81
2021/10/30 09:32:53;;;;;;;;;6.25;5.75;;;;;;;;6393888;22;46157;-80
2021/10/30 09:35:41;;;;;;;;;7.75;6.25;;;;;;;;6392315;22;45514;-80
2021/10/30 09:38:06;;;;;;;;;8.00;6.00;;;;;;;;6390717;22;45953;-79
2021/10/30 09:40:32;;;;;;;;;4.50;4.25;;;;;;;;6393544;22;45499;-80
2021/10/30 09:43:14;;;;;;;;;7.00;7.00;;;;;;;;6392829;22;45515;-80
2021/10/30 09:45:47;;;;;;;;;7.50;6.75;;;;;;;;6391844;22;45584;-80
2021/10/30 09:48:33;;;;;;;;;7.00;6.00;;;;;;;;6389854;22;45444;-80
2021/10/30 09:50:59;;;;;;;;;6.00;6.00;;;;;;;;6389939;22;45518;-80
2021/10/30 09:53:30;;;;;;;;;8.00;6.00;;;;;;;;6362682;22;45535;-80
2021/10/30 09:55:59;;;;;;;;;7.50;6.50;;;;;;;;6391021;22;45414;-81
2021/10/30 09:58:27;;;;;;;;;7.25;6.25;;;;;;;;6391704;22;45531;-81
2021/10/30 10:00:53;;;;;;;;;5.00;4.00;;;;;;;;6393780;22;45420;-81
2021/10/30 10:03:19;;;;;;;;;6.00;6.00;;;;;;;;6361894;22;45549;-81
2021/10/30 10:05:49;;;;;;;;;6.50;5.00;;;;;;;;6392486;22;46214;-81
2021/10/30 10:08:33;;;;;;;;;5.75;4.75;;;;;;;;6395617;22;45337;-83
2021/10/30 10:18:54;;;;;;;;;4.00;4.00;;;;;;;;6319579;22;46342;-82
2021/10/30 10:21:28;;;;;;;;;5.00;4.00;;;;;;;;6359165;22;45722;-82
2021/10/30 10:24:00;;;;;;;;;3.50;3.50;;;;;;;;6330653;22;45488;-81
2021/10/30 10:29:05;;;;;;;;;5.50;5.00;;;;;;;;6312902;22;45878;-81
2021/10/30 10:31:30;;;;;;;;;8.25;5.00;;;;;;;;6361614;22;45688;-81
2021/10/30 10:55:09;;;;;;;;;7.50;6.00;;;;;;;;6343414;22;45883;-81
2021/10/30 10:57:44;;;;;;;;;4.50;3.50;;;;;;;;6358869;22;45774;-82
2021/10/30 11:00:14;;;;;;;;;6.50;4.75;;;;;;;;6359067;22;45497;-82
2021/10/30 11:07:57;;;;;;;;;7.00;5.00;;;;;;;;6333564;22;46236;-93
2021/10/30 11:10:26;;;;;;;;;8.33;7.00;;;;;;;;6364539;22;45441;-93
2021/10/30 11:12:58;;;;;;;;;11.50;8.75;;;;;;;;6364529;22;45409;-93
2021/10/30 11:15:55;;;;;;;;;73.25;51.25;;;;;;;;6335462;22;45382;-93
2021/10/30 11:19:15;;;;;;;;;;;;;;;;;;;;;
2021/10/30 11:22:14;;;;;;;;;;;;;;;;;;;;;
2021/10/30 11:25:01;;;;;;;;;13.75;13.00;;;;;;;;6127160;22;69428;-93
2021/10/30 11:31:31;;;;;;;;;;;;;;;;;;;;;
2021/10/30 11:33:59;;;;;;;;;6.00;5.25;;;;;;;;6110935;23;45376;-92
2021/10/30 11:36:25;;;;;;;;;13.25;12.25;;;;;;;;6115702;23;45414;-91
2021/10/30 11:38:52;;;;;;;;;11.50;11.25;;;;;;;;6091562;23;45297;-94
2021/10/30 11:41:20;;;;;;;;;8.25;5.75;;;;;;;;6114237;23;46624;-93
2021/10/30 11:43:47;;;;;;;;;6.00;6.00;;;;;;;;6114907;23;45395;-93
2021/10/30 11:46:16;;;;;;;;;30.75;24.75;;;;;;;;6115347;23;45716;-93
2021/10/30 11:49:14;;;;;;;;;28.75;24.00;;;;;;;;6114726;23;45733;-93
2021/10/30 11:51:44;;;;;;;;;20.00;17.75;;;;;;;;6055888;23;47954;-93
2021/10/30 11:54:15;;;;;;;;;20.25;14.25;;;;;;;;6055305;23;45698;-93
2021/10/30 11:56:43;;;;;;;;;17.50;13.50;;;;;;;;6056468;23;45852;-94
2021/10/30 11:59:09;;;;;;;;;14.00;12.75;;;;;;;;6143552;23;45330;-93
2021/10/30 12:01:52;;;;;;;;;59.75;46.75;;;;;;;;6150294;23;47394;-93
2021/10/30 12:04:19;;;;;;;;;56.75;41.50;;;;;;;;6176408;23;45639;-93
2021/10/30 12:48:45;;;;;;;;;14.00;11.25;;;;;;;;6272509;22;46265;-96
2021/10/30 13:38:29;;;;;;;;;9.50;6.50;;;;;;;;6253793;22;46137;-92
2021/10/30 13:51:14;;;;;;;;;18.25;18.00;;;;;;;;6358054;22;46484;-91
2021/10/30 13:53:39;;;;;;;;;41.75;34.00;;;;;;;;6312371;22;45402;-92
2021/10/30 14:04:15;;;;;;;;;12.00;10.00;;;;;;;;6351038;22;45539;-93
2021/10/30 14:09:52;;;;;;;;;13.50;10.75;;;;;;;;6298945;22;45847;-93
